KLM54D LSZH-EHAM
Flight info
| Callsign | KLM54D |
|---|---|
| Flight time | 1h 1m |
| Altitude | 34000 |
| Route | VEBIT T10 TORPA DCT EDOPI DCT GIVOR DCT SORAL DCT IBERA DCT RITAX DCT BUB Y28 HELEN |
| Aircraft | A21N/M-SDE2E3FGHIRWXY/LB1 |
Departure
| Time | 2026-05-07 12:31 |
|---|---|
| Airport | Zürich Airport (LSZH) |
Arrival
| Time | 2026-05-07 13:33 |
|---|---|
| Airport | Amsterdam Airport Schiphol (EHAM) |
| Time | Latitude | Longitude | Altitude | Speed | Heading |
|---|---|---|---|---|---|
| 2026-05-07 12:16 | 47.45348 | 8.55647 | 1412 ft | 0 kts | 6° |
| 2026-05-07 12:23 | 47.45329 | 8.55644 | 1412 ft | 4 kts | 6° |
| 2026-05-07 12:23 | 47.45308 | 8.55640 | 1412 ft | 4 kts | 7° |
| 2026-05-07 12:23 | 47.45282 | 8.55638 | 1415 ft | 4 kts | 346° |
| 2026-05-07 12:23 | 47.45270 | 8.55651 | 1414 ft | 3 kts | 276° |
| 2026-05-07 12:24 | 47.45268 | 8.55686 | 1412 ft | 1 kts | 276° |
| 2026-05-07 12:24 | 47.45268 | 8.55687 | 1412 ft | 0 kts | 276° |
| 2026-05-07 12:26 | 47.45268 | 8.55686 | 1412 ft | 1 kts | 276° |
| 2026-05-07 12:26 | 47.45275 | 8.55598 | 1414 ft | 15 kts | 289° |
| 2026-05-07 12:26 | 47.45368 | 8.55514 | 1413 ft | 17 kts | 335° |
| 2026-05-07 12:26 | 47.45475 | 8.55437 | 1410 ft | 18 kts | 336° |
| 2026-05-07 12:27 | 47.45591 | 8.55362 | 1411 ft | 18 kts | 334° |
| 2026-05-07 12:27 | 47.45669 | 8.55412 | 1406 ft | 16 kts | 87° |
| 2026-05-07 12:27 | 47.45656 | 8.55589 | 1409 ft | 18 kts | 95° |
| 2026-05-07 12:27 | 47.45646 | 8.55783 | 1417 ft | 20 kts | 96° |
| 2026-05-07 12:28 | 47.45634 | 8.55920 | 1415 ft | 21 kts | 98° |
| 2026-05-07 12:28 | 47.45618 | 8.56139 | 1422 ft | 22 kts | 94° |
| 2026-05-07 12:28 | 47.45602 | 8.56372 | 1422 ft | 24 kts | 96° |
| 2026-05-07 12:28 | 47.45583 | 8.56619 | 1423 ft | 25 kts | 96° |
| 2026-05-07 12:29 | 47.45565 | 8.56873 | 1426 ft | 23 kts | 95° |
| 2026-05-07 12:29 | 47.45568 | 8.57004 | 1427 ft | 5 kts | 50° |
| 2026-05-07 12:29 | 47.45571 | 8.57008 | 1427 ft | 0 kts | 37° |
| 2026-05-07 12:30 | 47.45597 | 8.57018 | 1429 ft | 8 kts | 9° |
| 2026-05-07 12:30 | 47.45661 | 8.56990 | 1430 ft | 12 kts | 291° |
| 2026-05-07 12:30 | 47.45667 | 8.56951 | 1429 ft | 0 kts | 275° |
| 2026-05-07 12:30 | 47.45671 | 8.56884 | 1428 ft | 33 kts | 275° |
| 2026-05-07 12:31 | 47.45732 | 8.56048 | 1417 ft | 127 kts | 276° |
| 2026-05-07 12:31 | 47.45837 | 8.54513 | 1699 ft | 163 kts | 276° |
| 2026-05-07 12:31 | 47.45955 | 8.52779 | 2651 ft | 173 kts | 276° |
| 2026-05-07 12:31 | 47.46085 | 8.50953 | 3221 ft | 188 kts | 276° |
| 2026-05-07 12:32 | 47.46228 | 8.48936 | 3785 ft | 202 kts | 276° |
| 2026-05-07 12:32 | 47.46184 | 8.46824 | 4288 ft | 220 kts | 256° |
| 2026-05-07 12:32 | 47.45474 | 8.44700 | 4641 ft | 245 kts | 231° |
| 2026-05-07 12:32 | 47.44095 | 8.43105 | 5195 ft | 261 kts | 208° |
| 2026-05-07 12:33 | 47.41267 | 8.39843 | 6785 ft | 263 kts | 237° |
| 2026-05-07 12:33 | 47.40250 | 8.37586 | 7593 ft | 266 kts | 237° |
| 2026-05-07 12:33 | 47.39224 | 8.35306 | 8461 ft | 268 kts | 238° |
| 2026-05-07 12:34 | 47.38286 | 8.32917 | 9334 ft | 271 kts | 243° |
| 2026-05-07 12:34 | 47.37426 | 8.30431 | 10170 ft | 275 kts | 243° |
| 2026-05-07 12:34 | 47.36519 | 8.27819 | 10556 ft | 298 kts | 243° |
| 2026-05-07 12:34 | 47.35529 | 8.24999 | 10825 ft | 321 kts | 242° |
| 2026-05-07 12:35 | 47.34466 | 8.21983 | 11080 ft | 341 kts | 242° |
| 2026-05-07 12:35 | 47.33351 | 8.18831 | 11561 ft | 351 kts | 242° |
| 2026-05-07 12:35 | 47.32252 | 8.15586 | 12199 ft | 356 kts | 248° |
| 2026-05-07 12:35 | 47.31709 | 8.12016 | 12867 ft | 361 kts | 264° |
| 2026-05-07 12:36 | 47.31604 | 8.08310 | 13559 ft | 365 kts | 268° |
| 2026-05-07 12:36 | 47.31548 | 8.04553 | 14159 ft | 368 kts | 268° |
| 2026-05-07 12:36 | 47.31476 | 8.00758 | 14721 ft | 372 kts | 267° |
| 2026-05-07 12:36 | 47.31389 | 7.96938 | 15268 ft | 375 kts | 267° |
| 2026-05-07 12:37 | 47.31293 | 7.93076 | 15844 ft | 378 kts | 267° |
| 2026-05-07 12:37 | 47.31191 | 7.89191 | 16375 ft | 381 kts | 267° |
| 2026-05-07 12:37 | 47.31085 | 7.85269 | 16895 ft | 384 kts | 267° |
| 2026-05-07 12:37 | 47.30975 | 7.81322 | 17400 ft | 388 kts | 267° |
| 2026-05-07 12:38 | 47.30864 | 7.77335 | 17902 ft | 391 kts | 267° |
| 2026-05-07 12:38 | 47.30914 | 7.73324 | 18365 ft | 394 kts | 278° |
| 2026-05-07 12:38 | 47.31714 | 7.69459 | 18783 ft | 398 kts | 295° |
| 2026-05-07 12:38 | 47.33244 | 7.66059 | 19181 ft | 401 kts | 310° |
| 2026-05-07 12:39 | 47.35384 | 7.63398 | 19574 ft | 406 kts | 327° |
| 2026-05-07 12:39 | 47.37927 | 7.61546 | 19970 ft | 410 kts | 335° |
| 2026-05-07 12:39 | 47.40558 | 7.59892 | 20365 ft | 412 kts | 335° |
| 2026-05-07 12:39 | 47.43200 | 7.58222 | 20778 ft | 414 kts | 335° |
| 2026-05-07 12:40 | 47.45847 | 7.56512 | 21185 ft | 416 kts | 334° |
| 2026-05-07 12:40 | 47.48499 | 7.54774 | 21585 ft | 418 kts | 334° |
| 2026-05-07 12:40 | 47.51166 | 7.53019 | 21982 ft | 420 kts | 334° |
| 2026-05-07 12:40 | 47.53846 | 7.51249 | 22365 ft | 423 kts | 334° |
| 2026-05-07 12:41 | 47.56537 | 7.49471 | 22765 ft | 425 kts | 334° |
| 2026-05-07 12:41 | 47.59250 | 7.47679 | 23156 ft | 428 kts | 334° |
| 2026-05-07 12:41 | 47.61979 | 7.45875 | 23565 ft | 431 kts | 334° |
| 2026-05-07 12:41 | 47.64721 | 7.44057 | 23912 ft | 433 kts | 334° |
| 2026-05-07 12:42 | 47.67473 | 7.42232 | 24262 ft | 435 kts | 334° |
| 2026-05-07 12:42 | 47.70205 | 7.40420 | 24619 ft | 436 kts | 334° |
| 2026-05-07 12:42 | 47.72981 | 7.38574 | 24959 ft | 438 kts | 334° |
| 2026-05-07 12:42 | 47.75772 | 7.36714 | 25282 ft | 440 kts | 334° |
| 2026-05-07 12:43 | 47.78574 | 7.34849 | 25620 ft | 442 kts | 334° |
| 2026-05-07 12:43 | 47.81389 | 7.32980 | 25957 ft | 444 kts | 334° |
| 2026-05-07 12:43 | 47.84219 | 7.31098 | 26291 ft | 447 kts | 334° |
| 2026-05-07 12:43 | 47.87060 | 7.29200 | 26593 ft | 448 kts | 334° |
| 2026-05-07 12:44 | 47.89913 | 7.27288 | 26883 ft | 450 kts | 334° |
| 2026-05-07 12:44 | 47.92775 | 7.25372 | 27170 ft | 452 kts | 334° |
| 2026-05-07 12:44 | 47.95653 | 7.23442 | 27452 ft | 454 kts | 334° |
| 2026-05-07 12:44 | 47.98530 | 7.21512 | 27805 ft | 453 kts | 334° |
| 2026-05-07 12:45 | 48.01402 | 7.19581 | 28205 ft | 452 kts | 334° |
| 2026-05-07 12:45 | 48.04261 | 7.17655 | 28595 ft | 451 kts | 334° |
| 2026-05-07 12:45 | 48.07119 | 7.15728 | 28971 ft | 449 kts | 334° |
| 2026-05-07 12:45 | 48.09963 | 7.13807 | 29342 ft | 449 kts | 334° |
| 2026-05-07 12:46 | 48.12808 | 7.11884 | 29729 ft | 447 kts | 334° |
| 2026-05-07 12:46 | 48.15640 | 7.09965 | 30083 ft | 446 kts | 334° |
| 2026-05-07 12:46 | 48.18461 | 7.08051 | 30383 ft | 446 kts | 334° |
| 2026-05-07 12:46 | 48.21288 | 7.06133 | 30682 ft | 445 kts | 334° |
| 2026-05-07 12:47 | 48.24104 | 7.04221 | 30978 ft | 444 kts | 334° |
| 2026-05-07 12:47 | 48.26922 | 7.02308 | 31285 ft | 444 kts | 334° |
| 2026-05-07 12:47 | 48.29727 | 7.00397 | 31580 ft | 443 kts | 334° |
| 2026-05-07 12:47 | 48.32536 | 6.98481 | 31864 ft | 443 kts | 334° |
| 2026-05-07 12:48 | 48.35331 | 6.96572 | 32146 ft | 442 kts | 334° |
| 2026-05-07 12:48 | 48.38132 | 6.94660 | 32426 ft | 442 kts | 334° |
| 2026-05-07 12:48 | 48.40927 | 6.92747 | 32697 ft | 441 kts | 333° |
| 2026-05-07 12:48 | 48.43724 | 6.90831 | 32948 ft | 441 kts | 333° |
| 2026-05-07 12:49 | 48.46514 | 6.88916 | 33226 ft | 440 kts | 334° |
| 2026-05-07 12:49 | 48.49294 | 6.87006 | 33479 ft | 440 kts | 334° |
| 2026-05-07 12:49 | 48.52078 | 6.85094 | 33719 ft | 439 kts | 334° |
| 2026-05-07 12:49 | 48.54858 | 6.83181 | 33948 ft | 439 kts | 333° |
| 2026-05-07 12:50 | 48.57634 | 6.81264 | 34082 ft | 440 kts | 333° |
| 2026-05-07 12:50 | 48.60416 | 6.79341 | 34086 ft | 439 kts | 333° |
| 2026-05-07 12:50 | 48.65976 | 6.75502 | 34056 ft | 439 kts | 333° |
| 2026-05-07 12:51 | 48.71524 | 6.71655 | 34049 ft | 439 kts | 333° |
| 2026-05-07 12:51 | 48.77077 | 6.67795 | 34046 ft | 439 kts | 333° |
| 2026-05-07 12:52 | 48.82631 | 6.63930 | 34043 ft | 439 kts | 333° |
| 2026-05-07 12:52 | 48.88182 | 6.60055 | 34047 ft | 439 kts | 333° |
| 2026-05-07 12:53 | 48.93687 | 6.56202 | 34051 ft | 438 kts | 334° |
| 2026-05-07 12:53 | 48.99220 | 6.52317 | 34053 ft | 438 kts | 333° |
| 2026-05-07 12:54 | 49.04752 | 6.48429 | 34050 ft | 438 kts | 333° |
| 2026-05-07 12:54 | 49.10291 | 6.44547 | 34048 ft | 438 kts | 335° |
| 2026-05-07 12:55 | 49.16109 | 6.41728 | 34053 ft | 440 kts | 344° |
| 2026-05-07 12:55 | 49.22035 | 6.39380 | 34047 ft | 440 kts | 343° |
| 2026-05-07 12:56 | 49.27942 | 6.36966 | 34050 ft | 440 kts | 343° |
| 2026-05-07 12:56 | 49.33856 | 6.34533 | 34049 ft | 440 kts | 343° |
| 2026-05-07 12:57 | 49.39711 | 6.31851 | 34042 ft | 438 kts | 333° |
| 2026-05-07 12:57 | 49.42266 | 6.29356 | 34047 ft | 435 kts | 320° |
| 2026-05-07 12:57 | 49.44590 | 6.26380 | 34053 ft | 435 kts | 319° |
| 2026-05-07 12:58 | 49.49192 | 6.20376 | 34050 ft | 434 kts | 319° |
| 2026-05-07 12:58 | 49.53828 | 6.14430 | 34053 ft | 434 kts | 319° |
| 2026-05-07 12:59 | 49.58467 | 6.08495 | 34049 ft | 434 kts | 319° |
| 2026-05-07 12:59 | 49.63080 | 6.02587 | 34054 ft | 434 kts | 319° |
| 2026-05-07 13:00 | 49.67719 | 5.96627 | 34050 ft | 434 kts | 319° |
| 2026-05-07 13:00 | 49.72350 | 5.90659 | 34058 ft | 434 kts | 319° |
| 2026-05-07 13:01 | 49.76978 | 5.84684 | 34050 ft | 434 kts | 319° |
| 2026-05-07 13:01 | 49.81607 | 5.78693 | 34056 ft | 434 kts | 319° |
| 2026-05-07 13:02 | 49.86237 | 5.72679 | 34061 ft | 434 kts | 319° |
| 2026-05-07 13:02 | 49.90864 | 5.66656 | 34057 ft | 435 kts | 319° |
| 2026-05-07 13:03 | 49.95492 | 5.60615 | 34056 ft | 435 kts | 319° |
| 2026-05-07 13:03 | 50.00114 | 5.54558 | 34056 ft | 435 kts | 318° |
| 2026-05-07 13:04 | 50.04730 | 5.48492 | 34057 ft | 434 kts | 319° |
| 2026-05-07 13:04 | 50.09359 | 5.42401 | 34059 ft | 436 kts | 318° |
| 2026-05-07 13:05 | 50.13992 | 5.36291 | 34063 ft | 437 kts | 318° |
| 2026-05-07 13:05 | 50.18628 | 5.30174 | 34062 ft | 437 kts | 318° |
| 2026-05-07 13:06 | 50.23255 | 5.24045 | 34069 ft | 436 kts | 318° |
| 2026-05-07 13:06 | 50.27883 | 5.17891 | 34068 ft | 436 kts | 317° |
| 2026-05-07 13:07 | 50.32499 | 5.11731 | 34074 ft | 437 kts | 317° |
| 2026-05-07 13:07 | 50.37121 | 5.05551 | 34071 ft | 438 kts | 317° |
| 2026-05-07 13:08 | 50.41754 | 4.99340 | 34074 ft | 438 kts | 317° |
| 2026-05-07 13:08 | 50.46383 | 4.93123 | 34073 ft | 438 kts | 317° |
| 2026-05-07 13:09 | 50.51013 | 4.86889 | 34075 ft | 438 kts | 317° |
| 2026-05-07 13:09 | 50.55635 | 4.80645 | 34079 ft | 438 kts | 317° |
| 2026-05-07 13:10 | 50.60226 | 4.74421 | 34076 ft | 439 kts | 317° |
| 2026-05-07 13:10 | 50.64879 | 4.68108 | 34078 ft | 439 kts | 317° |
| 2026-05-07 13:11 | 50.69498 | 4.61820 | 34088 ft | 439 kts | 317° |
| 2026-05-07 13:11 | 50.74086 | 4.55558 | 34093 ft | 439 kts | 317° |
| 2026-05-07 13:12 | 50.78703 | 4.49240 | 34101 ft | 439 kts | 317° |
| 2026-05-07 13:12 | 50.83314 | 4.42909 | 34096 ft | 439 kts | 317° |
| 2026-05-07 13:13 | 50.87946 | 4.36533 | 33886 ft | 434 kts | 317° |
| 2026-05-07 13:13 | 50.90197 | 4.33428 | 33494 ft | 437 kts | 317° |
| 2026-05-07 13:13 | 50.92481 | 4.30273 | 32918 ft | 434 kts | 317° |
| 2026-05-07 13:14 | 50.94759 | 4.27122 | 32228 ft | 434 kts | 317° |
| 2026-05-07 13:14 | 50.97063 | 4.23930 | 31526 ft | 435 kts | 317° |
| 2026-05-07 13:14 | 50.99308 | 4.20811 | 30853 ft | 435 kts | 317° |
| 2026-05-07 13:14 | 51.01586 | 4.17646 | 30187 ft | 435 kts | 317° |
| 2026-05-07 13:15 | 51.03867 | 4.14476 | 29376 ft | 436 kts | 317° |
| 2026-05-07 13:15 | 51.06153 | 4.11295 | 28624 ft | 435 kts | 317° |
| 2026-05-07 13:15 | 51.08446 | 4.08098 | 27986 ft | 441 kts | 317° |
| 2026-05-07 13:15 | 51.10737 | 4.04902 | 27358 ft | 437 kts | 317° |
| 2026-05-07 13:16 | 51.13024 | 4.01712 | 26716 ft | 434 kts | 317° |
| 2026-05-07 13:16 | 51.15286 | 3.98549 | 26088 ft | 432 kts | 317° |
| 2026-05-07 13:16 | 51.16776 | 3.96461 | 25687 ft | 430 kts | 317° |
| 2026-05-07 13:16 | 51.19764 | 3.92271 | 24872 ft | 426 kts | 317° |
| 2026-05-07 13:17 | 51.21326 | 3.90291 | 24468 ft | 425 kts | 323° |
| 2026-05-07 13:17 | 51.23893 | 3.88085 | 23865 ft | 426 kts | 337° |
| 2026-05-07 13:17 | 51.26797 | 3.86915 | 23179 ft | 426 kts | 352° |
| 2026-05-07 13:17 | 51.29754 | 3.86703 | 22519 ft | 425 kts | 358° |
| 2026-05-07 13:18 | 51.32663 | 3.86676 | 21862 ft | 422 kts | 358° |
| 2026-05-07 13:18 | 51.35592 | 3.86651 | 21232 ft | 419 kts | 358° |
| 2026-05-07 13:18 | 51.38497 | 3.86601 | 20631 ft | 416 kts | 358° |
| 2026-05-07 13:18 | 51.41377 | 3.86539 | 20033 ft | 413 kts | 358° |
| 2026-05-07 13:19 | 51.44241 | 3.86470 | 19462 ft | 410 kts | 358° |
| 2026-05-07 13:19 | 51.47089 | 3.86406 | 18891 ft | 407 kts | 358° |
| 2026-05-07 13:19 | 51.49906 | 3.86875 | 17958 ft | 411 kts | 13° |
| 2026-05-07 13:19 | 51.52596 | 3.88437 | 17168 ft | 410 kts | 21° |
| 2026-05-07 13:20 | 51.55206 | 3.90208 | 16518 ft | 404 kts | 22° |
| 2026-05-07 13:20 | 51.57781 | 3.91926 | 15968 ft | 397 kts | 21° |
| 2026-05-07 13:20 | 51.60316 | 3.93566 | 15459 ft | 389 kts | 21° |
| 2026-05-07 13:20 | 51.62808 | 3.95153 | 14969 ft | 381 kts | 20° |
| 2026-05-07 13:21 | 51.65258 | 3.96697 | 14456 ft | 375 kts | 21° |
| 2026-05-07 13:21 | 51.67667 | 3.98213 | 13977 ft | 370 kts | 20° |
| 2026-05-07 13:21 | 51.70051 | 3.99706 | 13459 ft | 367 kts | 20° |
| 2026-05-07 13:21 | 51.72429 | 4.01207 | 12950 ft | 367 kts | 21° |
| 2026-05-07 13:22 | 51.74800 | 4.02715 | 12456 ft | 366 kts | 21° |
| 2026-05-07 13:22 | 51.77167 | 4.04225 | 11965 ft | 366 kts | 21° |
| 2026-05-07 13:22 | 51.79539 | 4.05741 | 11474 ft | 366 kts | 21° |
| 2026-05-07 13:22 | 51.81879 | 4.07234 | 11151 ft | 356 kts | 21° |
| 2026-05-07 13:23 | 51.84136 | 4.08673 | 10928 ft | 343 kts | 21° |
| 2026-05-07 13:23 | 51.86314 | 4.10069 | 10744 ft | 330 kts | 21° |
| 2026-05-07 13:23 | 51.88413 | 4.11415 | 10588 ft | 318 kts | 21° |
| 2026-05-07 13:23 | 51.90430 | 4.12686 | 10439 ft | 306 kts | 20° |
| 2026-05-07 13:24 | 51.92301 | 4.14197 | 10286 ft | 295 kts | 36° |
| 2026-05-07 13:24 | 51.93905 | 4.16270 | 10157 ft | 295 kts | 40° |
| 2026-05-07 13:24 | 51.95467 | 4.18412 | 9695 ft | 296 kts | 40° |
| 2026-05-07 13:24 | 51.97050 | 4.20534 | 9282 ft | 294 kts | 40° |
| 2026-05-07 13:25 | 51.98626 | 4.22630 | 8887 ft | 292 kts | 39° |
| 2026-05-07 13:25 | 52.00188 | 4.24710 | 8537 ft | 289 kts | 40° |
| 2026-05-07 13:25 | 52.01734 | 4.26785 | 8146 ft | 287 kts | 40° |
| 2026-05-07 13:25 | 52.03265 | 4.28842 | 7712 ft | 284 kts | 40° |
| 2026-05-07 13:26 | 52.04778 | 4.30870 | 7269 ft | 280 kts | 40° |
| 2026-05-07 13:26 | 52.06273 | 4.32878 | 6776 ft | 278 kts | 41° |
| 2026-05-07 13:26 | 52.07757 | 4.34870 | 6310 ft | 275 kts | 41° |
| 2026-05-07 13:26 | 52.09227 | 4.36844 | 5800 ft | 273 kts | 40° |
| 2026-05-07 13:27 | 52.10675 | 4.38795 | 5318 ft | 269 kts | 40° |
| 2026-05-07 13:27 | 52.12106 | 4.40729 | 4843 ft | 266 kts | 40° |
| 2026-05-07 13:27 | 52.13527 | 4.42644 | 4321 ft | 264 kts | 40° |
| 2026-05-07 13:27 | 52.14929 | 4.44536 | 3861 ft | 261 kts | 40° |
| 2026-05-07 13:28 | 52.16311 | 4.46399 | 3501 ft | 254 kts | 40° |
| 2026-05-07 13:28 | 52.17648 | 4.48198 | 3199 ft | 245 kts | 40° |
| 2026-05-07 13:28 | 52.18939 | 4.49940 | 3006 ft | 236 kts | 40° |
| 2026-05-07 13:28 | 52.20147 | 4.51594 | 2874 ft | 224 kts | 43° |
| 2026-05-07 13:29 | 52.21150 | 4.53478 | 2732 ft | 212 kts | 55° |
| 2026-05-07 13:29 | 52.21882 | 4.55483 | 2556 ft | 202 kts | 58° |
| 2026-05-07 13:29 | 52.22617 | 4.57400 | 2347 ft | 199 kts | 58° |
| 2026-05-07 13:29 | 52.23345 | 4.59288 | 2101 ft | 192 kts | 58° |
| 2026-05-07 13:30 | 52.24042 | 4.61098 | 1878 ft | 185 kts | 57° |
| 2026-05-07 13:30 | 52.24703 | 4.62813 | 1618 ft | 171 kts | 56° |
| 2026-05-07 13:30 | 52.25317 | 4.64406 | 1355 ft | 160 kts | 56° |
| 2026-05-07 13:30 | 52.25889 | 4.65892 | 1110 ft | 149 kts | 55° |
| 2026-05-07 13:31 | 52.26423 | 4.67278 | 924 ft | 144 kts | 55° |
| 2026-05-07 13:31 | 52.26960 | 4.68674 | 725 ft | 143 kts | 56° |
| 2026-05-07 13:31 | 52.27475 | 4.70018 | 566 ft | 140 kts | 56° |
| 2026-05-07 13:31 | 52.27998 | 4.71368 | 374 ft | 142 kts | 56° |
| 2026-05-07 13:32 | 52.28535 | 4.72734 | 180 ft | 141 kts | 57° |
| 2026-05-07 13:32 | 52.29048 | 4.74082 | 19 ft | 140 kts | 57° |
| 2026-05-07 13:32 | 52.29506 | 4.75277 | 3 ft | 102 kts | 58° |
| 2026-05-07 13:32 | 52.29798 | 4.76036 | 1 ft | 61 kts | 58° |
| 2026-05-07 13:33 | 52.29994 | 4.76499 | 3 ft | 34 kts | 37° |
| 2026-05-07 13:33 | 52.30134 | 4.76633 | 4 ft | 16 kts | 27° |
| 2026-05-07 13:33 | 52.30201 | 4.76687 | 4 ft | 6 kts | 26° |
| 2026-05-07 13:33 | 52.30246 | 4.76724 | 4 ft | 7 kts | 27° |
| 2026-05-07 13:34 | 52.30291 | 4.76771 | 4 ft | 8 kts | 53° |
| 2026-05-07 13:34 | 52.30359 | 4.76945 | 4 ft | 11 kts | 58° |
| 2026-05-07 13:34 | 52.30411 | 4.77051 | 4 ft | 12 kts | 24° |
| 2026-05-07 13:35 | 52.30489 | 4.76989 | 4 ft | 14 kts | 324° |
| 2026-05-07 13:35 | 52.30570 | 4.76904 | 4 ft | 15 kts | 327° |
| 2026-05-07 13:35 | 52.30629 | 4.76821 | 4 ft | 9 kts | 301° |
| 2026-05-07 13:35 | 52.30654 | 4.76721 | 4 ft | 7 kts | 266° |
| 2026-05-07 13:36 | 52.30637 | 4.76663 | 4 ft | 5 kts | 237° |
| 2026-05-07 13:36 | 52.30629 | 4.76644 | 4 ft | 0 kts | 238° |
| 2026-05-07 13:36 | 52.30629 | 4.76643 | 4 ft | 1 kts | 238° |
| 2026-05-07 13:37 | 52.30625 | 4.76633 | 4 ft | 0 kts | 237° |